Time;durP1;ratioP1;P1;durP2;ratioP2;P2;SDS_P1;SDS_P2;PMS_P1;PMS_P2;Temp;Humidity;BMP_temperature;BMP_pressure;BME280_temperature;BME280_humidity;BME280_pressure;Samples;Min_cycle;Max_cycle;Signal;HPM_P1;HPM_P2
2023/02/09 00:01:19;;;;;;;10.57;6.80;;;;;;;;;;5066700;28;20460;-82
2023/02/09 00:03:46;;;;;;;12.77;6.47;;;;;;;;;;5056037;28;20666;-82
2023/02/09 00:06:16;;;;;;;7.83;6.13;;;;;;;;;;5074440;28;21050;-83
2023/02/09 00:08:44;;;;;;;13.33;6.50;;;;;;;;;;5073941;28;20873;-82
2023/02/09 00:11:13;;;;;;;10.70;5.40;;;;;;;;;;5073938;28;20442;-83
2023/02/09 00:13:39;;;;;;;15.83;5.50;;;;;;;;;;5074014;28;20451;-81
2023/02/09 00:16:06;;;;;;;10.13;6.20;;;;;;;;;;5073834;28;20455;-81
2023/02/09 00:18:33;;;;;;;6.93;4.60;;;;;;;;;;5072163;28;20594;-83
2023/02/09 00:21:01;;;;;;;10.03;6.63;;;;;;;;;;5062331;28;20452;-82
2023/02/09 00:23:30;;;;;;;8.37;5.07;;;;;;;;;;5058566;28;20452;-81
2023/02/09 00:26:00;;;;;;;8.83;5.13;;;;;;;;;;5063255;28;20457;-82
2023/02/09 00:28:27;;;;;;;10.30;5.83;;;;;;;;;;5060269;28;20993;-82
2023/02/09 00:30:54;;;;;;;8.27;5.50;;;;;;;;;;5073818;28;20455;-82
2023/02/09 00:33:21;;;;;;;8.20;6.57;;;;;;;;;;5059938;28;20816;-82
2023/02/09 00:35:48;;;;;;;9.23;6.07;;;;;;;;;;5063341;28;20444;-82
2023/02/09 00:38:15;;;;;;;7.47;4.97;;;;;;;;;;5053919;28;20549;-82
2023/02/09 00:40:42;;;;;;;10.37;6.57;;;;;;;;;;5064740;28;20439;-82
2023/02/09 00:43:10;;;;;;;5.33;4.37;;;;;;;;;;5056187;28;20444;-83
2023/02/09 00:45:37;;;;;;;8.17;5.00;;;;;;;;;;5064282;28;20458;-81
2023/02/09 00:48:04;;;;;;;5.77;4.53;;;;;;;;;;5055964;28;20453;-82
2023/02/09 00:50:31;;;;;;;6.43;4.47;;;;;;;;;;5053563;28;20911;-82
2023/02/09 00:52:57;;;;;;;9.07;6.03;;;;;;;;;;5058578;28;20857;-82
2023/02/09 00:55:24;;;;;;;8.57;5.00;;;;;;;;;;5062295;28;20464;-81
2023/02/09 00:57:51;;;;;;;6.90;5.30;;;;;;;;;;5053167;28;20476;-82
2023/02/09 01:00:20;;;;;;;10.83;6.63;;;;;;;;;;5053528;28;20448;-81
2023/02/09 01:02:47;;;;;;;9.97;4.57;;;;;;;;;;5066770;28;20891;-82
2023/02/09 01:05:13;;;;;;;8.83;5.53;;;;;;;;;;5053252;28;20476;-85
2023/02/09 01:07:40;;;;;;;8.03;5.10;;;;;;;;;;5072617;28;20459;-82
2023/02/09 01:10:08;;;;;;;9.20;5.40;;;;;;;;;;5072142;28;20477;-82
2023/02/09 01:12:35;;;;;;;7.47;4.93;;;;;;;;;;5053954;28;20448;-83
2023/02/09 01:15:02;;;;;;;7.40;4.93;;;;;;;;;;5066058;28;20982;-82
2023/02/09 01:17:30;;;;;;;10.87;5.10;;;;;;;;;;5053039;28;20994;-82
2023/02/09 01:19:57;;;;;;;10.50;5.83;;;;;;;;;;5066180;28;20455;-82
2023/02/09 01:22:24;;;;;;;9.63;6.17;;;;;;;;;;5059976;28;20451;-82
2023/02/09 01:24:50;;;;;;;7.83;5.47;;;;;;;;;;5072496;28;20459;-82
2023/02/09 01:27:17;;;;;;;9.97;4.50;;;;;;;;;;5065003;28;21048;-82
2023/02/09 01:29:44;;;;;;;7.07;3.87;;;;;;;;;;5053835;28;20899;-86
2023/02/09 01:32:11;;;;;;;7.57;5.07;;;;;;;;;;5065433;28;20448;-82
2023/02/09 01:34:39;;;;;;;9.20;4.83;;;;;;;;;;5053996;28;20452;-82
2023/02/09 01:37:06;;;;;;;8.17;5.20;;;;;;;;;;5072382;28;20436;-82
2023/02/09 01:39:33;;;;;;;7.77;3.80;;;;;;;;;;5057534;28;20480;-82
2023/02/09 01:42:00;;;;;;;6.70;4.43;;;;;;;;;;5052616;28;20456;-83
2023/02/09 01:45:12;;;;;;;8.80;5.20;;;;;;;;;;5068011;28;20462;-83
2023/02/09 01:47:43;;;;;;;8.30;5.13;;;;;;;;;;5046369;28;20970;-82
2023/02/09 01:50:11;;;;;;;5.23;3.43;;;;;;;;;;5071999;28;20448;-82
2023/02/09 01:52:38;;;;;;;10.33;6.17;;;;;;;;;;5069706;28;20440;-82
2023/02/09 01:55:08;;;;;;;6.97;4.93;;;;;;;;;;5062030;28;20473;-82
2023/02/09 01:57:37;;;;;;;8.10;5.83;;;;;;;;;;5055034;28;20448;-82
2023/02/09 02:00:08;;;;;;;8.77;4.53;;;;;;;;;;5063070;28;20455;-83
2023/02/09 02:02:36;;;;;;;8.90;5.27;;;;;;;;;;5058759;28;20451;-83
2023/02/09 02:05:03;;;;;;;7.80;5.40;;;;;;;;;;5072369;28;20576;-82
2023/02/09 02:07:36;;;;;;;6.23;4.50;;;;;;;;;;5058354;28;20466;-82
2023/02/09 02:10:04;;;;;;;9.60;5.00;;;;;;;;;;5058443;28;20448;-83
2023/02/09 02:12:31;;;;;;;6.80;4.97;;;;;;;;;;5055582;28;20458;-82
2023/02/09 02:14:57;;;;;;;8.53;5.47;;;;;;;;;;5059529;28;21040;-82
2023/02/09 02:17:34;;;;;;;8.87;5.37;;;;;;;;;;5065248;28;20460;-82
2023/02/09 02:20:45;;;;;;;6.60;4.07;;;;;;;;;;5065400;28;20547;-84
2023/02/09 02:23:22;;;;;;;10.97;5.60;;;;;;;;;;5064799;28;20450;-82
2023/02/09 02:26:30;;;;;;;7.87;4.97;;;;;;;;;;5039506;28;20447;-82
2023/02/09 02:29:20;;;;;;;6.27;4.60;;;;;;;;;;5031843;28;20521;-82
2023/02/09 02:32:10;;;;;;;8.83;4.87;;;;;;;;;;5054304;28;20475;-83
2023/02/09 02:34:42;;;;;;;6.80;4.87;;;;;;;;;;5051671;28;20450;-81
2023/02/09 02:37:16;;;;;;;8.17;5.23;;;;;;;;;;5071101;28;20451;-82
2023/02/09 02:39:50;;;;;;;6.23;4.20;;;;;;;;;;5069190;28;20536;-83
2023/02/09 02:45:09;;;;;;;6.97;4.83;;;;;;;;;;5064554;28;20447;-82
2023/02/09 02:47:40;;;;;;;7.57;5.10;;;;;;;;;;5051563;28;20436;-82
2023/02/09 02:50:11;;;;;;;10.47;6.30;;;;;;;;;;5051052;28;20877;-82
2023/02/09 02:52:39;;;;;;;9.70;5.37;;;;;;;;;;5051337;28;20444;-82
2023/02/09 02:55:10;;;;;;;8.40;5.53;;;;;;;;;;5059939;28;20505;-82
2023/02/09 02:57:40;;;;;;;6.77;4.63;;;;;;;;;;5053978;28;20536;-82
2023/02/09 03:00:10;;;;;;;8.23;5.47;;;;;;;;;;5064351;28;21138;-91
2023/02/09 03:02:40;;;;;;;8.07;5.77;;;;;;;;;;5058581;28;20447;-81
2023/02/09 03:05:08;;;;;;;8.77;4.73;;;;;;;;;;5070223;28;20478;-84
2023/02/09 03:07:35;;;;;;;8.50;4.70;;;;;;;;;;5051257;28;20503;-82
2023/02/09 03:10:18;;;;;;;8.40;5.40;;;;;;;;;;5060251;28;20515;-82
2023/02/09 03:12:51;;;;;;;11.40;5.40;;;;;;;;;;5058925;28;20436;-81
2023/02/09 03:15:25;;;;;;;10.37;4.27;;;;;;;;;;5063261;28;20451;-82
2023/02/09 03:17:58;;;;;;;8.23;5.07;;;;;;;;;;5063191;28;20449;-82
2023/02/09 03:20:29;;;;;;;7.03;4.60;;;;;;;;;;5052655;28;20975;-81
2023/02/09 03:23:01;;;;;;;5.90;4.90;;;;;;;;;;5070686;28;20443;-82
2023/02/09 03:25:31;;;;;;;5.33;4.37;;;;;;;;;;5070482;28;21116;-82
2023/02/09 03:28:01;;;;;;;11.53;5.73;;;;;;;;;;5060174;28;20666;-82
2023/02/09 03:30:29;;;;;;;7.47;5.07;;;;;;;;;;5068068;28;21020;-82
2023/02/09 03:32:57;;;;;;;8.57;5.60;;;;;;;;;;5058824;28;20502;-82
2023/02/09 03:35:26;;;;;;;6.37;4.77;;;;;;;;;;5059855;28;20512;-82
2023/02/09 03:37:53;;;;;;;6.27;4.90;;;;;;;;;;5062609;28;20881;-80
2023/02/09 03:40:19;;;;;;;8.50;5.23;;;;;;;;;;5059674;28;20459;-82
2023/02/09 03:42:46;;;;;;;7.60;5.73;;;;;;;;;;5068998;28;20447;-81
2023/02/09 03:45:13;;;;;;;11.40;6.47;;;;;;;;;;5054890;28;20463;-81
2023/02/09 03:47:40;;;;;;;7.13;5.17;;;;;;;;;;5067321;28;20459;-81
2023/02/09 03:50:09;;;;;;;6.60;4.50;;;;;;;;;;5074374;28;20455;-80
2023/02/09 03:52:35;;;;;;;6.77;5.43;;;;;;;;;;5074127;28;20877;-81
2023/02/09 03:55:04;;;;;;;8.07;5.63;;;;;;;;;;5067489;28;20467;-82
2023/02/09 03:57:30;;;;;;;8.67;5.40;;;;;;;;;;5068134;28;20482;-82
2023/02/09 03:59:57;;;;;;;9.33;5.43;;;;;;;;;;5073721;28;20486;-81
2023/02/09 04:02:24;;;;;;;8.13;5.07;;;;;;;;;;5071670;28;20837;-81
2023/02/09 04:04:52;;;;;;;5.67;4.30;;;;;;;;;;5067816;28;20878;-79
2023/02/09 04:07:20;;;;;;;7.37;5.93;;;;;;;;;;5061670;28;20525;-84
2023/02/09 04:09:47;;;;;;;8.27;5.33;;;;;;;;;;5062267;28;20953;-79
2023/02/09 04:12:14;;;;;;;8.53;4.57;;;;;;;;;;5073516;28;20513;-81
2023/02/09 04:14:40;;;;;;;11.37;6.33;;;;;;;;;;5064468;28;20455;-81
2023/02/09 04:17:07;;;;;;;7.57;6.20;;;;;;;;;;5057013;28;21038;-81
2023/02/09 04:19:34;;;;;;;14.87;4.40;;;;;;;;;;5074327;28;20494;-82
2023/02/09 04:22:00;;;;;;;6.63;4.40;;;;;;;;;;5060339;28;20505;-82
2023/02/09 04:24:29;;;;;;;8.17;5.37;;;;;;;;;;5064274;28;20505;-81
2023/02/09 04:26:55;;;;;;;9.03;5.23;;;;;;;;;;5057437;28;20439;-82
2023/02/09 04:29:22;;;;;;;10.30;5.43;;;;;;;;;;5063265;28;20453;-82
2023/02/09 04:31:49;;;;;;;9.53;6.50;;;;;;;;;;5067371;28;20459;-81
2023/02/09 04:34:16;;;;;;;9.90;5.43;;;;;;;;;;5064813;28;20451;-82
2023/02/09 04:36:43;;;;;;;5.90;3.97;;;;;;;;;;5069300;28;20448;-81
2023/02/09 04:39:10;;;;;;;16.33;9.37;;;;;;;;;;5063424;28;21028;-83
2023/02/09 04:41:38;;;;;;;8.87;6.23;;;;;;;;;;5055972;28;20969;-83
2023/02/09 04:44:05;;;;;;;8.47;5.93;;;;;;;;;;5053895;28;20506;-82
2023/02/09 04:46:32;;;;;;;10.00;5.77;;;;;;;;;;5070332;28;20455;-82
2023/02/09 04:48:59;;;;;;;9.20;4.50;;;;;;;;;;5062066;28;20464;-82
2023/02/09 04:51:26;;;;;;;10.13;5.37;;;;;;;;;;5058244;28;20455;-82
2023/02/09 04:53:53;;;;;;;6.43;4.90;;;;;;;;;;5062155;28;20447;-82
2023/02/09 04:56:20;;;;;;;6.93;5.17;;;;;;;;;;5058944;28;20984;-82
2023/02/09 05:01:32;;;;;;;8.83;5.40;;;;;;;;;;5041902;28;20571;-82
2023/02/09 05:03:59;;;;;;;7.73;4.40;;;;;;;;;;5055629;28;20459;-82
2023/02/09 05:06:26;;;;;;;8.13;5.00;;;;;;;;;;5074516;28;20478;-82
2023/02/09 05:08:52;;;;;;;7.77;5.07;;;;;;;;;;5060525;28;20441;-83
2023/02/09 05:11:19;;;;;;;7.07;4.50;;;;;;;;;;5064256;28;20987;-82
2023/02/09 05:13:47;;;;;;;8.87;6.07;;;;;;;;;;5053432;28;20847;-82
2023/02/09 05:16:16;;;;;;;7.40;4.80;;;;;;;;;;5054018;28;20820;-82
2023/02/09 05:18:43;;;;;;;10.53;5.17;;;;;;;;;;5068659;28;20570;-80
2023/02/09 05:21:10;;;;;;;8.63;4.90;;;;;;;;;;5065551;28;20445;-81
2023/02/09 05:23:37;;;;;;;6.73;4.27;;;;;;;;;;5066456;28;20466;-82
2023/02/09 05:26:03;;;;;;;6.30;4.67;;;;;;;;;;5053207;28;20459;-82
2023/02/09 05:28:30;;;;;;;6.70;5.17;;;;;;;;;;5066760;28;20481;-82
2023/02/09 05:30:58;;;;;;;6.53;4.77;;;;;;;;;;5052909;28;21048;-84
2023/02/09 05:33:28;;;;;;;7.40;4.63;;;;;;;;;;5052540;28;20444;-83
2023/02/09 05:35:55;;;;;;;11.10;5.97;;;;;;;;;;5053093;28;20482;-82
2023/02/09 05:38:22;;;;;;;9.30;4.57;;;;;;;;;;5065883;28;20448;-83
2023/02/09 05:40:49;;;;;;;6.30;4.93;;;;;;;;;;5052513;28;20465;-83
2023/02/09 05:43:16;;;;;;;9.27;5.13;;;;;;;;;;5053308;28;20456;-82
2023/02/09 05:45:43;;;;;;;14.47;10.90;;;;;;;;;;5062929;28;20984;-82
2023/02/09 05:48:11;;;;;;;7.33;4.60;;;;;;;;;;5059270;28;21012;-83
2023/02/09 05:50:38;;;;;;;9.10;5.23;;;;;;;;;;5061917;28;20437;-82
2023/02/09 05:53:05;;;;;;;11.20;6.57;;;;;;;;;;5056940;28;20513;-82
2023/02/09 05:55:32;;;;;;;11.63;5.47;;;;;;;;;;5072688;28;20513;-83
2023/02/09 05:57:58;;;;;;;7.93;5.13;;;;;;;;;;5067526;28;20978;-82
2023/02/09 06:00:26;;;;;;;9.10;6.00;;;;;;;;;;5051956;28;20491;-83
2023/02/09 06:02:53;;;;;;;7.20;5.33;;;;;;;;;;5070315;28;20906;-83
2023/02/09 06:05:21;;;;;;;8.17;5.10;;;;;;;;;;5071878;28;20536;-82
2023/02/09 06:07:48;;;;;;;5.70;4.13;;;;;;;;;;5072192;28;20451;-81
2023/02/09 06:10:14;;;;;;;13.93;7.63;;;;;;;;;;5060064;28;20453;-82
2023/02/09 06:12:41;;;;;;;8.50;6.27;;;;;;;;;;5059002;28;20447;-82
2023/02/09 06:15:09;;;;;;;9.73;6.43;;;;;;;;;;5058029;28;20460;-83
2023/02/09 06:17:35;;;;;;;8.17;6.20;;;;;;;;;;5064876;28;20548;-82
2023/02/09 06:20:02;;;;;;;7.93;5.23;;;;;;;;;;5051999;28;20488;-83
2023/02/09 06:22:30;;;;;;;5.70;4.33;;;;;;;;;;5052140;28;20460;-83
2023/02/09 06:24:57;;;;;;;4.23;3.67;;;;;;;;;;5064995;28;20459;-83
2023/02/09 06:27:24;;;;;;;5.27;3.97;;;;;;;;;;5051917;28;20510;-83
2023/02/09 06:29:50;;;;;;;11.47;7.57;;;;;;;;;;5066334;28;20458;-84
2023/02/09 06:32:17;;;;;;;16.20;8.57;;;;;;;;;;5071823;28;20455;-83
2023/02/09 06:34:44;;;;;;;9.47;5.13;;;;;;;;;;5071329;28;20970;-83
2023/02/09 06:37:11;;;;;;;10.20;7.10;;;;;;;;;;5071607;28;20525;-83
2023/02/09 06:39:39;;;;;;;8.93;5.73;;;;;;;;;;5070175;28;20913;-83
2023/02/09 06:42:05;;;;;;;11.23;6.93;;;;;;;;;;5060276;28;20447;-83
2023/02/09 06:44:32;;;;;;;12.20;6.03;;;;;;;;;;5069858;28;20447;-85
2023/02/09 06:46:59;;;;;;;47.30;25.20;;;;;;;;;;5051964;28;20448;-85
2023/02/09 06:49:26;;;;;;;10.47;7.27;;;;;;;;;;5052909;28;20468;-86
2023/02/09 06:51:53;;;;;;;11.43;7.13;;;;;;;;;;5071922;28;20838;-86
2023/02/09 06:54:20;;;;;;;13.87;6.57;;;;;;;;;;5072171;28;20447;-86
2023/02/09 06:56:48;;;;;;;9.90;5.67;;;;;;;;;;5071475;28;20455;-86
2023/02/09 06:59:15;;;;;;;8.63;5.50;;;;;;;;;;5068046;28;20553;-84
2023/02/09 07:01:42;;;;;;;6.43;4.47;;;;;;;;;;5051149;28;20448;-85
2023/02/09 07:04:09;;;;;;;28.87;13.83;;;;;;;;;;5064758;28;20449;-85
2023/02/09 07:06:36;;;;;;;28.53;14.53;;;;;;;;;;5051953;28;20225;-84
2023/02/09 07:09:03;;;;;;;7.17;5.60;;;;;;;;;;5050711;28;20463;-84
2023/02/09 07:11:30;;;;;;;15.10;10.07;;;;;;;;;;5062416;28;20451;-84
2023/02/09 07:13:58;;;;;;;11.87;8.83;;;;;;;;;;5054815;28;20575;-84
2023/02/09 07:16:25;;;;;;;6.97;4.57;;;;;;;;;;5050698;28;20202;-83
2023/02/09 07:18:51;;;;;;;8.37;7.37;;;;;;;;;;5068690;28;20994;-83
2023/02/09 07:21:20;;;;;;;7.57;5.83;;;;;;;;;;5060427;28;20483;-82
2023/02/09 07:23:47;;;;;;;5.20;3.67;;;;;;;;;;5068440;28;20228;-82
2023/02/09 07:26:16;;;;;;;8.40;4.17;;;;;;;;;;5070778;28;20676;-82
2023/02/09 07:28:43;;;;;;;5.63;3.90;;;;;;;;;;5071037;28;20633;-83
2023/02/09 07:31:13;;;;;;;5.83;4.03;;;;;;;;;;5059404;28;20206;-83
2023/02/09 07:33:39;;;;;;;5.10;2.97;;;;;;;;;;5051217;28;20201;-83
2023/02/09 07:36:08;;;;;;;4.03;3.23;;;;;;;;;;5063423;28;20205;-83
2023/02/09 07:38:34;;;;;;;9.27;6.17;;;;;;;;;;5064962;28;20205;-83
2023/02/09 07:41:02;;;;;;;5.80;3.87;;;;;;;;;;5051029;28;20241;-84
2023/02/09 07:43:30;;;;;;;3.87;3.10;;;;;;;;;;5071010;28;20500;-84
2023/02/09 07:45:59;;;;;;;4.87;3.40;;;;;;;;;;5057988;28;20296;-84
2023/02/09 07:48:28;;;;;;;6.07;3.67;;;;;;;;;;5058009;28;20280;-85
2023/02/09 07:50:55;;;;;;;26.63;17.50;;;;;;;;;;5070477;28;20201;-85
2023/02/09 07:53:25;;;;;;;7.10;4.30;;;;;;;;;;5070624;28;20213;-84
2023/02/09 07:55:52;;;;;;;8.43;4.63;;;;;;;;;;5056428;28;20260;-85
2023/02/09 07:58:20;;;;;;;6.17;4.13;;;;;;;;;;5050920;28;20194;-83
2023/02/09 08:00:47;;;;;;;5.80;4.13;;;;;;;;;;5052065;28;20734;-85
2023/02/09 08:03:14;;;;;;;7.17;4.33;;;;;;;;;;5062854;28;20260;-84
2023/02/09 08:05:48;;;;;;;3.87;2.93;;;;;;;;;;5051125;28;20593;-85
2023/02/09 08:08:14;;;;;;;5.37;3.67;;;;;;;;;;5060484;28;20250;-85
2023/02/09 08:10:42;;;;;;;4.37;3.87;;;;;;;;;;5058938;28;20216;-84
2023/02/09 08:13:09;;;;;;;5.67;3.53;;;;;;;;;;5060166;28;20677;-85
2023/02/09 08:15:38;;;;;;;5.37;3.37;;;;;;;;;;5067675;28;20205;-85
2023/02/09 08:18:09;;;;;;;6.30;3.20;;;;;;;;;;5070945;28;20206;-85
2023/02/09 08:20:36;;;;;;;4.53;2.83;;;;;;;;;;5054680;28;20233;-85
2023/02/09 08:23:08;;;;;;;3.80;2.47;;;;;;;;;;5054631;28;20259;-85
2023/02/09 08:25:35;;;;;;;5.37;3.60;;;;;;;;;;5067933;28;20584;-85
2023/02/09 08:28:03;;;;;;;4.27;3.23;;;;;;;;;;5054265;28;20255;-85
2023/02/09 08:30:30;;;;;;;5.30;3.97;;;;;;;;;;5047633;28;20633;-85
2023/02/09 08:32:58;;;;;;;6.10;3.57;;;;;;;;;;5074102;28;20212;-84
2023/02/09 08:35:25;;;;;;;3.97;2.60;;;;;;;;;;5041438;28;20206;-83
2023/02/09 08:37:51;;;;;;;14.07;4.90;;;;;;;;;;5067718;28;20249;-83
2023/02/09 08:40:21;;;;;;;5.90;4.10;;;;;;;;;;5066869;28;20299;-84
2023/02/09 08:42:48;;;;;;;4.87;3.73;;;;;;;;;;5068881;28;20201;-84
2023/02/09 08:45:15;;;;;;;9.50;5.03;;;;;;;;;;5073720;28;20197;-83
2023/02/09 08:47:42;;;;;;;7.23;5.13;;;;;;;;;;5072082;28;20232;-84
2023/02/09 08:50:09;;;;;;;11.30;5.23;;;;;;;;;;5062220;28;20205;-86
2023/02/09 08:52:36;;;;;;;3.73;3.40;;;;;;;;;;5058624;28;20205;-84
2023/02/09 08:55:04;;;;;;;8.17;4.43;;;;;;;;;;5053746;28;20206;-84
2023/02/09 08:57:32;;;;;;;9.67;5.13;;;;;;;;;;5069389;28;20201;-84
2023/02/09 08:59:58;;;;;;;15.90;7.50;;;;;;;;;;5064213;28;20221;-85
2023/02/09 09:02:25;;;;;;;7.30;5.37;;;;;;;;;;5069280;28;20684;-84
2023/02/09 09:04:52;;;;;;;5.63;4.17;;;;;;;;;;5064171;28;20656;-83
2023/02/09 09:07:19;;;;;;;5.67;3.87;;;;;;;;;;5069530;28;20691;-84
2023/02/09 09:09:45;;;;;;;5.13;4.23;;;;;;;;;;5073261;28;20204;-84
2023/02/09 09:12:12;;;;;;;6.27;4.00;;;;;;;;;;5070745;28;20255;-83
2023/02/09 09:14:43;;;;;;;7.30;4.57;;;;;;;;;;5053470;28;20260;-84
2023/02/09 09:17:11;;;;;;;4.00;3.43;;;;;;;;;;5070720;28;20209;-83
2023/02/09 09:19:39;;;;;;;4.80;3.73;;;;;;;;;;5062844;28;20248;-83
2023/02/09 09:22:06;;;;;;;3.77;3.37;;;;;;;;;;5057474;28;20239;-84
2023/02/09 09:24:39;;;;;;;5.30;3.17;;;;;;;;;;5061818;28;20213;-84
2023/02/09 09:27:06;;;;;;;6.50;3.43;;;;;;;;;;5072026;28;20205;-83
2023/02/09 09:29:33;;;;;;;5.93;3.53;;;;;;;;;;5073308;28;20343;-83
2023/02/09 09:32:02;;;;;;;3.80;2.80;;;;;;;;;;5053158;28;20577;-84
2023/02/09 09:34:28;;;;;;;4.90;2.97;;;;;;;;;;5053099;28;20209;-83
2023/02/09 09:36:55;;;;;;;3.67;3.10;;;;;;;;;;5066264;28;20202;-82
2023/02/09 09:39:23;;;;;;;8.00;3.93;;;;;;;;;;5066591;28;20217;-83
2023/02/09 09:41:53;;;;;;;4.00;3.57;;;;;;;;;;5039461;28;21100;-82
2023/02/09 09:44:26;;;;;;;5.27;3.03;;;;;;;;;;5053162;28;20205;-83
2023/02/09 09:46:53;;;;;;;5.80;3.73;;;;;;;;;;5072296;28;20255;-83
2023/02/09 09:49:25;;;;;;;4.83;3.43;;;;;;;;;;5072582;28;20676;-83
2023/02/09 09:51:54;;;;;;;5.97;3.33;;;;;;;;;;5072443;28;20208;-83
2023/02/09 09:54:23;;;;;;;5.00;3.30;;;;;;;;;;5056111;28;20209;-83
2023/02/09 09:56:51;;;;;;;3.57;3.20;;;;;;;;;;5052301;28;20213;-83
2023/02/09 09:59:20;;;;;;;7.57;5.17;;;;;;;;;;5069176;28;20205;-83
2023/02/09 10:01:49;;;;;;;5.37;3.67;;;;;;;;;;5072425;28;20237;-83
2023/02/09 10:04:16;;;;;;;7.13;3.83;;;;;;;;;;5058885;28;20219;-83
2023/02/09 10:06:46;;;;;;;4.70;3.43;;;;;;;;;;5072264;28;20197;-83
2023/02/09 10:09:23;;;;;;;5.00;3.47;;;;;;;;;;5053178;28;20268;-83
2023/02/09 10:11:55;;;;;;;5.47;3.47;;;;;;;;;;5065814;28;20201;-83
2023/02/09 10:14:21;;;;;;;4.23;3.07;;;;;;;;;;5039319;28;20206;-83
2023/02/09 10:16:48;;;;;;;3.87;3.37;;;;;;;;;;5065326;28;20212;-83
2023/02/09 10:19:21;;;;;;;3.60;3.27;;;;;;;;;;5072049;28;20258;-83
2023/02/09 10:21:49;;;;;;;4.40;3.40;;;;;;;;;;5058306;28;20676;-83
2023/02/09 10:24:21;;;;;;;4.13;3.00;;;;;;;;;;5071355;28;20246;-84
2023/02/09 10:27:02;;;;;;;4.47;3.30;;;;;;;;;;5055874;28;20206;-82
2023/02/09 10:29:29;;;;;;;3.57;3.27;;;;;;;;;;5064178;28;20209;-83
2023/02/09 10:32:01;;;;;;;3.90;2.50;;;;;;;;;;5053290;28;20251;-83
2023/02/09 10:34:31;;;;;;;3.67;3.00;;;;;;;;;;5051927;28;20205;-83
2023/02/09 10:37:18;;;;;;;3.50;3.10;;;;;;;;;;5044800;28;20673;-82
2023/02/09 10:39:45;;;;;;;4.20;2.77;;;;;;;;;;5069233;28;20208;-83
2023/02/09 10:42:17;;;;;;;3.67;2.63;;;;;;;;;;5051577;28;20233;-83
2023/02/09 10:44:48;;;;;;;4.03;3.23;;;;;;;;;;5064277;28;20596;-83
2023/02/09 10:47:27;;;;;;;4.73;3.30;;;;;;;;;;5062964;28;20205;-83
2023/02/09 10:49:56;;;;;;;3.20;2.63;;;;;;;;;;5057999;28;20291;-83
2023/02/09 10:52:25;;;;;;;5.30;3.10;;;;;;;;;;5071348;28;20213;-84
2023/02/09 10:54:55;;;;;;;4.07;2.73;;;;;;;;;;5051052;28;20672;-83
2023/02/09 10:57:26;;;;;;;4.70;3.70;;;;;;;;;;5065980;28;20624;-82
2023/02/09 10:59:55;;;;;;;4.13;3.00;;;;;;;;;;5062818;28;20251;-83
2023/02/09 11:02:34;;;;;;;4.53;3.37;;;;;;;;;;5051053;28;20777;-82
2023/02/09 11:05:01;;;;;;;3.07;2.33;;;;;;;;;;5051665;28;20239;-83
2023/02/09 11:07:33;;;;;;;4.60;3.60;;;;;;;;;;5054825;28;20703;-83
2023/02/09 11:10:00;;;;;;;3.53;2.57;;;;;;;;;;5070947;28;20205;-83
2023/02/09 11:12:27;;;;;;;4.87;3.40;;;;;;;;;;5065794;28;20703;-82
2023/02/09 11:14:54;;;;;;;3.77;3.23;;;;;;;;;;5063085;28;20208;-83
2023/02/09 11:17:23;;;;;;;4.13;3.40;;;;;;;;;;5052147;28;20202;-83
2023/02/09 11:20:05;;;;;;;7.37;3.03;;;;;;;;;;5050906;28;20205;-84
2023/02/09 11:22:55;;;;;;;3.37;2.40;;;;;;;;;;5038897;28;20229;-82
2023/02/09 11:25:25;;;;;;;3.63;3.13;;;;;;;;;;5050816;28;20704;-83
2023/02/09 11:28:01;;;;;;;3.33;2.57;;;;;;;;;;5050796;28;20202;-83
2023/02/09 11:30:43;;;;;;;5.20;4.30;;;;;;;;;;5050820;28;20271;-83
2023/02/09 11:33:16;;;;;;;3.07;2.77;;;;;;;;;;5065692;28;20205;-83
2023/02/09 11:35:51;;;;;;;4.50;3.10;;;;;;;;;;5061464;28;20209;-83
2023/02/09 11:38:22;;;;;;;9.67;5.50;;;;;;;;;;5050771;28;20197;-83
2023/02/09 11:40:51;;;;;;;4.13;3.53;;;;;;;;;;5050716;28;20296;-83
2023/02/09 11:43:21;;;;;;;3.07;2.43;;;;;;;;;;5068892;28;20197;-83
2023/02/09 11:45:49;;;;;;;3.30;2.60;;;;;;;;;;5058393;28;20753;-83
2023/02/09 11:48:22;;;;;;;3.27;2.80;;;;;;;;;;5050831;28;20256;-83
2023/02/09 11:50:57;;;;;;;4.03;2.47;;;;;;;;;;5063887;28;20640;-83
2023/02/09 11:53:30;;;;;;;3.87;3.10;;;;;;;;;;5050925;28;20212;-83
2023/02/09 11:55:59;;;;;;;3.50;2.90;;;;;;;;;;5069189;28;20620;-83
2023/02/09 11:58:48;;;;;;;4.20;2.93;;;;;;;;;;5074682;28;20212;-83
2023/02/09 12:01:36;;;;;;;3.37;3.07;;;;;;;;;;5068133;28;20232;-83
2023/02/09 12:04:10;;;;;;;4.57;3.60;;;;;;;;;;5068450;28;20216;-82
2023/02/09 12:06:40;;;;;;;5.30;3.60;;;;;;;;;;5064269;28;20715;-83
2023/02/09 12:09:24;;;;;;;5.33;3.40;;;;;;;;;;5061311;28;20201;-83
2023/02/09 12:11:57;;;;;;;5.87;3.47;;;;;;;;;;5074021;28;20201;-82
2023/02/09 12:14:35;;;;;;;3.30;2.83;;;;;;;;;;5042264;28;20271;-83
2023/02/09 12:17:08;;;;;;;4.33;3.00;;;;;;;;;;5057531;28;20213;-82
2023/02/09 12:19:36;;;;;;;3.30;3.00;;;;;;;;;;5063792;28;20677;-83
2023/02/09 12:22:43;;;;;;;5.60;4.07;;;;;;;;;;5058053;28;20225;-82
2023/02/09 12:25:36;;;;;;;6.03;2.60;;;;;;;;;;5058019;28;20197;-83
2023/02/09 12:28:18;;;;;;;3.67;2.93;;;;;;;;;;5065637;28;20622;-83
2023/02/09 12:31:19;;;;;;;6.00;3.70;;;;;;;;;;5033900;28;20198;-82
2023/02/09 12:34:29;;;;;;;4.60;2.63;;;;;;;;;;5040805;28;20208;-83
2023/02/09 12:37:23;;;;;;;4.53;2.67;;;;;;;;;;5034766;28;20222;-83
2023/02/09 12:40:21;;;;;;;10.67;6.50;;;;;;;;;;5060646;28;20209;-83
2023/02/09 12:45:40;;;;;;;3.63;2.90;;;;;;;;;;5104276;27;1347907;-82
2023/02/09 12:48:13;;;;;;;7.70;5.00;;;;;;;;;;5129146;28;20264;-82
2023/02/09 12:50:53;;;;;;;3.73;2.80;;;;;;;;;;5115899;28;20744;-82
2023/02/09 12:53:45;;;;;;;7.43;6.00;;;;;;;;;;5116981;28;20673;-82
2023/02/09 12:56:37;;;;;;;4.07;3.03;;;;;;;;;;5129061;28;20740;-83
2023/02/09 12:59:21;;;;;;;9.23;6.37;;;;;;;;;;5129732;28;20199;-82
2023/02/09 13:02:25;;;;;;;3.40;3.10;;;;;;;;;;5128839;28;20677;-82
2023/02/09 13:05:01;;;;;;;5.03;3.37;;;;;;;;;;5055308;28;20237;-82
2023/02/09 13:07:48;;;;;;;2.73;2.53;;;;;;;;;;5116222;28;20592;-82
2023/02/09 13:10:25;;;;;;;3.57;3.07;;;;;;;;;;5109341;28;20199;-82
2023/02/09 13:12:56;;;;;;;6.30;4.53;;;;;;;;;;5116606;28;20289;-82
2023/02/09 13:15:26;;;;;;;4.37;2.80;;;;;;;;;;5115015;28;20727;-81
2023/02/09 13:18:06;;;;;;;14.70;9.03;;;;;;;;;;5118949;28;20203;-82
2023/02/09 13:20:54;;;;;;;3.73;2.77;;;;;;;;;;5108372;28;20200;-81
2023/02/09 13:23:29;;;;;;;5.20;2.97;;;;;;;;;;5123137;28;20206;-82
2023/02/09 13:26:01;;;;;;;5.63;3.20;;;;;;;;;;5128546;28;20322;-82
2023/02/09 13:28:29;;;;;;;4.83;2.67;;;;;;;;;;5128657;28;20248;-81
2023/02/09 13:30:56;;;;;;;3.93;3.53;;;;;;;;;;5128390;28;20203;-82
2023/02/09 13:33:34;;;;;;;12.80;7.33;;;;;;;;;;5114851;28;20214;-82
2023/02/09 13:36:07;;;;;;;10.03;6.77;;;;;;;;;;5128862;28;20206;-80
2023/02/09 13:38:34;;;;;;;12.47;8.60;;;;;;;;;;5121384;28;20767;-82
2023/02/09 13:41:02;;;;;;;6.20;4.00;;;;;;;;;;5107836;28;20210;-82
2023/02/09 13:43:31;;;;;;;5.93;3.70;;;;;;;;;;5128430;28;21596;-82
2023/02/09 13:45:58;;;;;;;5.33;2.80;;;;;;;;;;5114644;28;20196;-82
2023/02/09 13:48:28;;;;;;;3.97;3.17;;;;;;;;;;5120187;28;20207;-82
2023/02/09 13:50:57;;;;;;;13.37;8.00;;;;;;;;;;5121197;28;20198;-82
2023/02/09 13:53:25;;;;;;;3.93;3.33;;;;;;;;;;5117020;28;20692;-82
2023/02/09 13:55:53;;;;;;;6.70;3.87;;;;;;;;;;5104161;28;20604;-82
2023/02/09 13:58:23;;;;;;;4.27;2.53;;;;;;;;;;5104178;28;20196;-82
2023/02/09 14:00:51;;;;;;;3.10;2.70;;;;;;;;;;5114060;28;20210;-82
2023/02/09 14:03:20;;;;;;;4.23;3.20;;;;;;;;;;5114061;28;20211;-82
2023/02/09 14:05:51;;;;;;;4.03;3.63;;;;;;;;;;5113897;28;20223;-82
2023/02/09 14:08:19;;;;;;;4.60;3.43;;;;;;;;;;5101813;28;20200;-82
2023/02/09 14:10:53;;;;;;;7.00;4.70;;;;;;;;;;5094233;28;20196;-82
2023/02/09 14:13:23;;;;;;;7.53;5.90;;;;;;;;;;5105935;28;20759;-82
2023/02/09 14:16:09;;;;;;;5.70;4.17;;;;;;;;;;5107672;28;20204;-82
2023/02/09 14:18:48;;;;;;;16.63;10.63;;;;;;;;;;5109310;28;20223;-82
2023/02/09 14:21:24;;;;;;;6.20;4.67;;;;;;;;;;5114096;28;20203;-82
2023/02/09 14:24:11;;;;;;;5.00;3.93;;;;;;;;;;5108489;28;20647;-82
2023/02/09 14:26:43;;;;;;;4.60;4.00;;;;;;;;;;5107124;28;20199;-81
2023/02/09 14:29:14;;;;;;;5.33;3.53;;;;;;;;;;5093677;28;20232;-81
2023/02/09 14:31:46;;;;;;;5.40;3.77;;;;;;;;;;5096438;28;20261;-81
2023/02/09 14:34:25;;;;;;;3.23;2.70;;;;;;;;;;5114285;28;20207;-82
2023/02/09 14:36:58;;;;;;;5.17;3.47;;;;;;;;;;5107662;28;20578;-82
2023/02/09 14:39:29;;;;;;;9.40;6.87;;;;;;;;;;5106935;28;20272;-84
2023/02/09 14:42:16;;;;;;;6.37;5.70;;;;;;;;;;5101041;28;20256;-82
2023/02/09 14:44:48;;;;;;;5.10;3.50;;;;;;;;;;5113576;28;20601;-82
2023/02/09 14:47:31;;;;;;;4.37;3.87;;;;;;;;;;5113405;28;20261;-83
2023/02/09 14:49:58;;;;;;;6.50;4.43;;;;;;;;;;5105777;28;20649;-82
2023/02/09 14:52:28;;;;;;;8.27;5.40;;;;;;;;;;5106504;28;20747;-82
2023/02/09 14:54:57;;;;;;;5.63;3.53;;;;;;;;;;5105615;28;20287;-82
2023/02/09 14:57:25;;;;;;;6.40;5.03;;;;;;;;;;5094459;28;20257;-82
2023/02/09 14:59:52;;;;;;;4.83;4.07;;;;;;;;;;5113183;28;20200;-83
2023/02/09 15:02:22;;;;;;;4.50;3.73;;;;;;;;;;5097334;28;20683;-82
2023/02/09 15:04:49;;;;;;;5.43;3.77;;;;;;;;;;5092549;28;20224;-82
2023/02/09 15:07:20;;;;;;;3.77;3.47;;;;;;;;;;5105344;28;20200;-82
2023/02/09 15:09:49;;;;;;;8.73;6.13;;;;;;;;;;5102838;28;20218;-84